Time;durP1;ratioP1;P1;durP2;ratioP2;P2;SDS_P1;SDS_P2;PMS_P1;PMS_P2;Temp;Humidity;BMP_temperature;BMP_pressure;BME280_temperature;BME280_humidity;BME280_pressure;Samples;Min_cycle;Max_cycle;Signal;HPM_P1;HPM_P2
2021/03/07 00:00:24;;;;;;;;;;;-0.30;99.90;;;;;;5033127;28;19955;-79
2021/03/07 00:02:50;;;;;;;;;;;-0.30;99.90;;;;;;5033460;28;19912;-79
2021/03/07 00:05:16;;;;;;;;;;;-0.40;99.90;;;;;;5033505;28;19905;-80
2021/03/07 00:07:42;;;;;;;;;;;-0.50;99.90;;;;;;5033710;28;20336;-80
2021/03/07 00:10:10;;;;;;;;;;;-0.50;99.90;;;;;;5032467;28;19912;-80
2021/03/07 00:12:35;;;;;;;;;;;-0.50;99.90;;;;;;5033385;28;19905;-80
2021/03/07 00:15:01;;;;;;;;;;;-0.50;99.90;;;;;;5033139;28;20377;-80
2021/03/07 00:17:27;;;;;;;;;;;-0.50;99.90;;;;;;5033336;28;19909;-80
2021/03/07 00:19:52;;;;;;;;;;;-0.60;99.90;;;;;;5033573;28;19912;-80
2021/03/07 00:22:18;;;;;;;;;;;-0.70;99.90;;;;;;5033359;28;19912;-80
2021/03/07 00:24:43;;;;;;;;;;;-0.70;99.90;;;;;;5032652;28;19933;-80
2021/03/07 00:27:09;;;;;;;;;;;-0.60;99.90;;;;;;5033342;28;19920;-80
2021/03/07 00:29:34;;;;;;;;;;;-0.70;99.90;;;;;;5031746;28;19944;-79
2021/03/07 00:32:00;;;;;;;;;;;-0.70;99.90;;;;;;5032867;28;20370;-79
2021/03/07 00:34:25;;;;;;;;;;;-0.80;99.90;;;;;;5032729;28;20011;-79
2021/03/07 00:36:51;;;;;;;;;;;-0.80;99.90;;;;;;5032895;28;19913;-79
2021/03/07 00:39:16;;;;;;;;;;;-0.80;99.90;;;;;;5033040;28;20011;-79
2021/03/07 00:41:43;;;;;;;;;;;-0.80;99.90;;;;;;5032998;28;19912;-79
2021/03/07 00:44:08;;;;;;;;;;;-0.80;99.90;;;;;;5032670;28;19909;-80
2021/03/07 00:46:36;;;;;;;;;;;-0.80;99.90;;;;;;5032803;28;20286;-79
2021/03/07 00:49:02;;;;;;;;;;;-0.80;99.90;;;;;;5032699;28;19905;-80
2021/03/07 00:51:27;;;;;;;;;;;-0.80;99.90;;;;;;5032816;28;19912;-79
2021/03/07 00:53:53;;;;;;;;;;;-0.90;99.90;;;;;;5032888;28;19928;-79
2021/03/07 00:56:18;;;;;;;;;;;-0.80;99.90;;;;;;5032739;28;19916;-80
2021/03/07 00:58:44;;;;;;;;;;;-0.90;99.90;;;;;;5031796;28;19959;-80
2021/03/07 01:01:09;;;;;;;;;;;-0.90;99.90;;;;;;5029104;28;19913;-79
2021/03/07 01:03:35;;;;;;;;;;;-0.90;99.90;;;;;;5032382;28;19905;-80
2021/03/07 01:06:01;;;;;;;;;;;-0.90;99.90;;;;;;5032432;28;19913;-79
2021/03/07 01:08:26;;;;;;;;;;;-1.00;99.90;;;;;;5032672;28;19912;-80
2021/03/07 01:10:52;;;;;;;;;;;-1.00;99.90;;;;;;5032568;28;19948;-81
2021/03/07 01:13:18;;;;;;;;;;;-1.00;99.90;;;;;;5034324;28;19927;-81
2021/03/07 01:15:44;;;;;;;;;;;-1.00;99.90;;;;;;5036242;28;19905;-80
2021/03/07 01:18:10;;;;;;;;;;;-0.90;99.90;;;;;;5033760;28;20278;-80
2021/03/07 01:20:37;;;;;;;;;;;-0.90;99.90;;;;;;5033594;28;19958;-80
2021/03/07 01:23:02;;;;;;;;;;;-0.90;99.90;;;;;;5032718;28;19905;-80
2021/03/07 01:25:32;;;;;;;;;;;-0.70;99.90;;;;;;5032179;28;19912;-80
2021/03/07 01:27:59;;;;;;;;;;;-0.50;99.90;;;;;;5032337;28;20366;-80
2021/03/07 01:30:25;;;;;;;;;;;-0.40;99.90;;;;;;5024946;28;19917;-80
2021/03/07 01:32:51;;;;;;;;;;;-0.30;99.90;;;;;;5032236;28;19916;-80
2021/03/07 01:35:16;;;;;;;;;;;-0.20;99.90;;;;;;5033833;28;20278;-80
2021/03/07 01:37:42;;;;;;;;;;;-0.30;99.90;;;;;;5051152;28;19897;-81
2021/03/07 01:40:12;;;;;;;;;;;-0.20;99.90;;;;;;5050356;28;20401;-80
2021/03/07 01:42:42;;;;;;;;;;;-0.20;99.90;;;;;;5044935;28;19927;-80
2021/03/07 01:45:07;;;;;;;;;;;-0.30;99.90;;;;;;5035050;28;20350;-80
2021/03/07 01:47:33;;;;;;;;;;;-0.10;99.90;;;;;;5031823;28;19905;-79
2021/03/07 01:50:00;;;;;;;;;;;-0.10;99.90;;;;;;5031567;28;20004;-80
2021/03/07 01:52:26;;;;;;;;;;;-0.10;99.90;;;;;;5031707;28;19906;-80
2021/03/07 01:54:51;;;;;;;;;;;-0.10;99.90;;;;;;5031538;28;19935;-80
2021/03/07 01:57:19;;;;;;;;;;;-0.10;99.90;;;;;;5031377;28;19935;-80
2021/03/07 01:59:47;;;;;;;;;;;0.00;99.90;;;;;;5026696;28;19913;-80
2021/03/07 02:02:13;;;;;;;;;;;-0.10;99.90;;;;;;5025162;28;19927;-80
2021/03/07 02:04:38;;;;;;;;;;;-0.20;99.90;;;;;;5031144;28;19909;-80
2021/03/07 02:07:04;;;;;;;;;;;-0.10;99.90;;;;;;5031641;28;20429;-80
2021/03/07 02:09:29;;;;;;;;;;;-0.20;99.90;;;;;;5031624;28;19959;-80
2021/03/07 02:11:55;;;;;;;;;;;-0.20;99.90;;;;;;5031325;28;20289;-78
2021/03/07 02:14:21;;;;;;;;;;;-0.10;99.90;;;;;;5031234;28;19958;-79
2021/03/07 02:16:47;;;;;;;;;;;-0.30;99.90;;;;;;5031283;28;19916;-79
2021/03/07 02:19:13;;;;;;;;;;;-0.30;99.90;;;;;;5031201;28;20221;-80
2021/03/07 02:21:49;;;;;;;;;;;-0.30;99.90;;;;;;5031365;28;19913;-80
2021/03/07 02:24:15;;;;;;;;;;;-0.30;99.90;;;;;;5030925;28;19948;-80
2021/03/07 02:26:43;;;;;;;;;;;-0.40;99.90;;;;;;5031173;28;20290;-80
2021/03/07 02:29:10;;;;;;;;;;;-0.40;99.90;;;;;;5031081;28;19975;-80
2021/03/07 02:31:38;;;;;;;;;;;-0.40;99.90;;;;;;5030275;28;19905;-79
2021/03/07 02:34:09;;;;;;;;;;;-0.40;99.90;;;;;;5030751;28;19905;-79
2021/03/07 02:36:48;;;;;;;;;;;-0.40;99.90;;;;;;5031038;28;19909;-79
2021/03/07 02:39:15;;;;;;;;;;;-0.10;99.90;;;;;;5030641;28;19913;-80
2021/03/07 02:41:40;;;;;;;;;;;0.10;99.90;;;;;;5030952;28;20259;-79
2021/03/07 02:44:07;;;;;;;;;;;0.20;99.90;;;;;;5028532;28;19968;-79
2021/03/07 02:46:33;;;;;;;;;;;0.20;99.90;;;;;;5030719;28;19905;-79
2021/03/07 02:49:00;;;;;;;;;;;0.20;99.90;;;;;;5030639;28;19909;-79
2021/03/07 02:51:27;;;;;;;;;;;0.20;99.90;;;;;;5030793;28;20354;-80
2021/03/07 02:53:58;;;;;;;;;;;0.10;99.90;;;;;;5030288;28;19909;-79
2021/03/07 02:56:26;;;;;;;;;;;0.00;99.90;;;;;;5030380;28;20355;-79
2021/03/07 02:58:56;;;;;;;;;;;0.00;99.90;;;;;;5030553;28;19972;-80
2021/03/07 03:01:22;;;;;;;;;;;0.10;99.90;;;;;;5030538;28;19905;-80
2021/03/07 03:03:49;;;;;;;;;;;0.10;99.90;;;;;;5030602;28;20308;-79
2021/03/07 03:06:15;;;;;;;;;;;0.00;99.90;;;;;;5030668;28;20382;-79
2021/03/07 03:08:43;;;;;;;;;;;0.00;99.90;;;;;;5030564;28;19912;-79
2021/03/07 03:11:09;;;;;;;;;;;-0.10;99.90;;;;;;5030776;28;19913;-79
2021/03/07 03:13:36;;;;;;;;;;;-0.20;99.90;;;;;;5030891;28;20255;-79
2021/03/07 03:16:03;;;;;;;;;;;-0.30;99.90;;;;;;5025656;28;19909;-80
2021/03/07 03:18:29;;;;;;;;;;;-0.40;99.90;;;;;;5030469;28;20278;-79
2021/03/07 03:20:57;;;;;;;;;;;-0.30;99.90;;;;;;5030550;28;20377;-79
2021/03/07 03:23:23;;;;;;;;;;;-0.50;99.90;;;;;;5030615;28;19905;-79
2021/03/07 03:25:50;;;;;;;;;;;-0.60;99.90;;;;;;5030281;28;19909;-79
2021/03/07 03:28:15;;;;;;;;;;;-0.50;99.90;;;;;;5030768;28;19905;-79
2021/03/07 03:30:41;;;;;;;;;;;-0.60;99.90;;;;;;5030301;28;19959;-79
2021/03/07 03:33:06;;;;;;;;;;;-0.80;99.90;;;;;;5030553;28;19905;-80
2021/03/07 03:35:32;;;;;;;;;;;-0.80;99.90;;;;;;5030273;28;19905;-80
2021/03/07 03:37:57;;;;;;;;;;;-0.80;99.90;;;;;;5030489;28;19908;-80
2021/03/07 03:40:24;;;;;;;;;;;-0.90;99.90;;;;;;5030595;28;19954;-79
2021/03/07 03:42:55;;;;;;;;;;;-1.00;99.90;;;;;;5031003;28;19996;-79
2021/03/07 03:45:20;;;;;;;;;;;-1.10;99.90;;;;;;5025501;28;19910;-79
2021/03/07 03:47:48;;;;;;;;;;;-1.10;99.90;;;;;;5033844;28;19912;-79
2021/03/07 03:50:15;;;;;;;;;;;-1.20;99.90;;;;;;5034068;28;19909;-79
2021/03/07 03:52:41;;;;;;;;;;;-1.20;99.90;;;;;;5034148;28;19912;-79
2021/03/07 03:55:12;;;;;;;;;;;-1.30;99.90;;;;;;5033981;28;19905;-79
2021/03/07 03:57:37;;;;;;;;;;;-1.30;99.90;;;;;;5033913;28;19913;-79
2021/03/07 04:00:05;;;;;;;;;;;-1.30;99.90;;;;;;5033949;28;19905;-79
2021/03/07 04:02:32;;;;;;;;;;;-1.40;99.90;;;;;;5033960;28;19905;-79
2021/03/07 04:04:59;;;;;;;;;;;-1.40;99.90;;;;;;5033500;28;19905;-79
2021/03/07 04:07:25;;;;;;;;;;;-1.30;99.90;;;;;;5033843;28;19912;-79
2021/03/07 04:09:51;;;;;;;;;;;-1.30;99.90;;;;;;5033592;28;19951;-79
2021/03/07 04:12:17;;;;;;;;;;;-1.30;99.90;;;;;;5033732;28;20004;-79
2021/03/07 04:14:43;;;;;;;;;;;-1.40;99.90;;;;;;5028386;28;19917;-79
2021/03/07 04:17:09;;;;;;;;;;;-1.40;99.90;;;;;;5033129;28;19909;-79
2021/03/07 04:19:34;;;;;;;;;;;-1.40;99.90;;;;;;5033528;28;19905;-79
2021/03/07 04:22:00;;;;;;;;;;;-1.40;99.90;;;;;;5033374;28;19905;-79
2021/03/07 04:24:26;;;;;;;;;;;-1.30;99.90;;;;;;5033104;28;20360;-79
2021/03/07 04:26:52;;;;;;;;;;;-1.30;99.90;;;;;;5033456;28;19959;-79
2021/03/07 04:29:17;;;;;;;;;;;-1.20;99.90;;;;;;5034036;28;19905;-81
2021/03/07 04:31:44;;;;;;;;;;;-1.20;99.90;;;;;;5037029;28;19909;-80
2021/03/07 04:34:10;;;;;;;;;;;-1.20;99.90;;;;;;5048058;28;19948;-81
2021/03/07 04:36:36;;;;;;;;;;;-1.20;99.90;;;;;;5047917;28;19909;-81
2021/03/07 04:39:02;;;;;;;;;;;-1.30;99.90;;;;;;5047250;28;19905;-80
2021/03/07 04:41:28;;;;;;;;;;;-1.20;99.90;;;;;;5034925;28;19905;-80
2021/03/07 04:43:56;;;;;;;;;;;-1.20;99.90;;;;;;5031437;28;20313;-80
2021/03/07 04:46:23;;;;;;;;;;;-1.30;99.90;;;;;;5032750;28;20381;-79
2021/03/07 04:48:49;;;;;;;;;;;-1.40;99.90;;;;;;5032673;28;20325;-79
2021/03/07 04:51:15;;;;;;;;;;;-1.30;99.90;;;;;;5032971;28;20358;-79
2021/03/07 04:53:40;;;;;;;;;;;-1.20;99.90;;;;;;5032886;28;19905;-79
2021/03/07 04:56:06;;;;;;;;;;;-1.20;99.90;;;;;;5031875;28;19912;-80
2021/03/07 04:58:33;;;;;;;;;;;-1.20;99.90;;;;;;5032634;28;19917;-79
2021/03/07 05:00:58;;;;;;;;;;;-1.20;99.90;;;;;;5032702;28;20000;-79
2021/03/07 05:03:24;;;;;;;;;;;-1.20;99.90;;;;;;5033266;28;19963;-79
2021/03/07 05:05:49;;;;;;;;;;;-1.30;99.90;;;;;;5038156;28;19917;-81
2021/03/07 05:08:15;;;;;;;;;;;-1.40;99.90;;;;;;5043710;28;19916;-81
2021/03/07 05:10:41;;;;;;;;;;;-1.50;99.90;;;;;;5038675;28;20378;-79
2021/03/07 05:13:06;;;;;;;;;;;-1.40;99.90;;;;;;5033000;28;19905;-79
2021/03/07 05:15:32;;;;;;;;;;;-1.50;99.90;;;;;;5031507;28;20423;-80
2021/03/07 05:17:57;;;;;;;;;;;-1.50;99.90;;;;;;5031384;28;19999;-80
2021/03/07 05:20:23;;;;;;;;;;;-1.50;99.90;;;;;;5032513;28;19905;-80
2021/03/07 05:22:48;;;;;;;;;;;-1.60;99.90;;;;;;5032530;28;19915;-80
2021/03/07 05:25:14;;;;;;;;;;;-1.60;99.90;;;;;;5032557;28;19905;-80
2021/03/07 05:27:40;;;;;;;;;;;-1.50;99.90;;;;;;5032442;28;19912;-79
2021/03/07 05:30:06;;;;;;;;;;;-1.50;99.90;;;;;;5031527;28;20350;-79
2021/03/07 05:32:31;;;;;;;;;;;-1.60;99.90;;;;;;5032359;28;20016;-80
2021/03/07 05:34:57;;;;;;;;;;;-1.60;99.90;;;;;;5032226;28;19948;-80
2021/03/07 05:37:22;;;;;;;;;;;-1.70;99.90;;;;;;5031866;28;19909;-80
2021/03/07 05:39:48;;;;;;;;;;;-1.70;99.90;;;;;;5031951;28;20372;-80
2021/03/07 05:42:13;;;;;;;;;;;-1.70;99.90;;;;;;5031946;28;19905;-80
2021/03/07 05:44:39;;;;;;;;;;;-1.70;99.90;;;;;;5031361;28;19909;-80
2021/03/07 05:47:05;;;;;;;;;;;-1.80;99.90;;;;;;5031973;28;19909;-80
2021/03/07 05:49:30;;;;;;;;;;;-1.90;99.90;;;;;;5030731;28;20385;-79
2021/03/07 05:51:56;;;;;;;;;;;-1.90;99.90;;;;;;5029583;28;19909;-79
2021/03/07 05:54:22;;;;;;;;;;;-1.90;99.90;;;;;;5029034;28;19912;-79
2021/03/07 05:56:48;;;;;;;;;;;-1.90;99.90;;;;;;5029945;28;19913;-79
2021/03/07 05:59:14;;;;;;;;;;;-1.90;99.90;;;;;;5030091;28;20003;-79
2021/03/07 06:01:39;;;;;;;;;;;-2.00;99.90;;;;;;5029990;28;20039;-79
2021/03/07 06:04:05;;;;;;;;;;;-1.90;99.90;;;;;;5029766;28;19905;-80
2021/03/07 06:06:31;;;;;;;;;;;-1.90;99.90;;;;;;5029257;28;20331;-81
2021/03/07 06:09:15;;;;;;;;;;;-1.80;99.90;;;;;;5029910;28;20366;-80
2021/03/07 06:11:40;;;;;;;;;;;-1.60;99.90;;;;;;5030354;28;19909;-79
2021/03/07 06:14:16;;;;;;;;;;;-1.70;99.90;;;;;;5029192;28;19995;-81
2021/03/07 06:16:56;;;;;;;;;;;-1.60;99.90;;;;;;5030165;28;20489;-80
2021/03/07 06:19:22;;;;;;;;;;;-1.60;99.90;;;;;;5029951;28;19912;-80
2021/03/07 06:21:47;;;;;;;;;;;-1.50;99.90;;;;;;5029895;28;19905;-80
2021/03/07 06:24:31;;;;;;;;;;;-1.50;99.90;;;;;;5029730;28;19913;-79
2021/03/07 06:27:07;;;;;;;;;;;-1.40;99.90;;;;;;5030386;28;20358;-82
2021/03/07 06:29:33;;;;;;;;;;;-1.40;99.90;;;;;;5032699;28;20337;-80
2021/03/07 06:31:59;;;;;;;;;;;-1.30;99.90;;;;;;5032551;28;20392;-81
2021/03/07 06:34:25;;;;;;;;;;;-1.30;99.90;;;;;;5029581;28;19912;-80
2021/03/07 06:37:03;;;;;;;;;;;-1.30;99.90;;;;;;5029616;28;19936;-85
2021/03/07 06:39:29;;;;;;;;;;;-1.40;99.90;;;;;;5029592;28;19913;-81
2021/03/07 06:42:05;;;;;;;;;;;-1.20;99.90;;;;;;5030859;28;19905;-81
2021/03/07 06:44:30;;;;;;;;;;;-1.20;99.90;;;;;;5031783;28;20358;-81
2021/03/07 06:47:05;;;;;;;;;;;-1.10;99.90;;;;;;5030011;28;19905;-80
2021/03/07 06:49:31;;;;;;;;;;;-1.00;99.90;;;;;;5029400;28;19912;-80
2021/03/07 06:52:15;;;;;;;;;;;-0.90;99.90;;;;;;5029388;28;20000;-80
2021/03/07 06:54:42;;;;;;;;;;;-0.70;99.90;;;;;;5029999;28;19955;-80
2021/03/07 06:57:07;;;;;;;;;;;-0.60;99.90;;;;;;5030510;28;19909;-80
2021/03/07 06:59:33;;;;;;;;;;;-0.60;99.90;;;;;;5029925;28;20271;-80
2021/03/07 07:02:00;;;;;;;;;;;-0.50;99.90;;;;;;5014864;28;19932;-80
2021/03/07 07:04:38;;;;;;;;;;;-0.50;99.90;;;;;;5030120;28;19905;-81
2021/03/07 07:07:07;;;;;;;;;;;-0.50;99.90;;;;;;5031217;28;19905;-80
2021/03/07 07:09:33;;;;;;;;;;;-0.50;99.90;;;;;;5030651;28;19909;-79
2021/03/07 07:11:59;;;;;;;;;;;-0.50;99.90;;;;;;5030358;28;20359;-81
2021/03/07 07:14:40;;;;;;;;;;;-0.40;99.90;;;;;;5030369;28;19909;-80
2021/03/07 07:17:06;;;;;;;;;;;-0.10;99.90;;;;;;5032479;28;19955;-80
2021/03/07 07:19:32;;;;;;;;;;;1.00;99.90;;;;;;5034338;28;19992;-80
2021/03/07 07:21:57;;;;;;;;;;;2.30;99.90;;;;;;5035131;28;19975;-81
2021/03/07 07:24:23;;;;;;;;;;;3.20;99.90;;;;;;5034737;28;20411;-80
2021/03/07 07:26:49;;;;;;;;;;;4.10;99.90;;;;;;5034987;28;19905;-80
2021/03/07 07:29:16;;;;;;;5.78;3.92;;;4.10;99.90;;;;;;5034438;28;20382;-80
2021/03/07 07:32:08;;;;;;;10.10;3.35;;;4.20;99.90;;;;;;5035629;28;20025;-81
2021/03/07 07:34:51;;;;;;;4.57;2.70;;;3.90;99.90;;;;;;5018441;28;20060;-82
2021/03/07 07:37:24;;;;;;;;;;;4.40;99.90;;;;;;5044162;28;19944;-81
2021/03/07 07:39:51;;;;;;;;;;;4.60;99.90;;;;;;5046972;28;19928;-80
2021/03/07 07:42:19;;;;;;;;;;;4.60;99.90;;;;;;5043834;28;19916;-80
2021/03/07 07:44:45;;;;;;;;;;;4.60;99.90;;;;;;5033465;28;19912;-80
2021/03/07 07:47:11;;;;;;;5.38;3.60;;;5.40;99.90;;;;;;5034212;28;19905;-80
2021/03/07 07:49:44;;;;;;;5.38;2.80;;;6.40;99.90;;;;;;5033280;28;20053;-80
2021/03/07 07:52:25;;;;;;;4.60;3.22;;;6.40;99.90;;;;;;5033267;28;20030;-79
2021/03/07 07:54:59;;;;;;;7.45;2.95;;;6.70;97.70;;;;;;5032686;28;20084;-80
2021/03/07 07:57:38;;;;;;;5.90;3.22;;;7.00;97.00;;;;;;5033103;28;20021;-79
2021/03/07 08:00:18;;;;;;;5.78;2.88;;;6.60;97.50;;;;;;5032701;28;20060;-80
2021/03/07 08:02:47;;;;;;;4.28;3.05;;;7.20;95.60;;;;;;5033221;28;20483;-80
2021/03/07 08:05:26;;;;;;;5.65;3.13;;;8.70;91.40;;;;;;5032209;28;20021;-81
2021/03/07 08:08:05;;;;;;;5.50;3.80;;;8.40;88.80;;;;;;5032763;28;20033;-80
2021/03/07 08:10:40;;;;;;;8.02;4.22;;;8.80;85.70;;;;;;5032219;28;20033;-81
2021/03/07 08:13:07;;;;;;;4.47;2.78;;;11.10;75.20;;;;;;5032804;28;20025;-80
2021/03/07 08:15:33;;;;;;;5.22;3.33;;;12.30;66.50;;;;;;5033841;28;20033;-79
2021/03/07 08:18:03;;;;;;;5.90;3.08;;;13.30;60.30;;;;;;5033293;28;20129;-79
2021/03/07 08:20:41;;;;;;;4.95;3.20;;;;;;;;;;5029067;28;20554;-81
2021/03/07 08:23:13;;;;;;;7.43;3.22;;;;;;;;;;5026953;28;20032;-80
2021/03/07 08:25:49;;;;;;;5.00;3.58;;;;;;;;;;5032409;28;20131;-80
2021/03/07 08:28:24;;;;;;;4.85;2.72;;;;;;;;;;5033621;28;20025;-80
2021/03/07 08:30:50;;;;;;;4.63;3.08;;;14.10;54.20;;;;;;5031903;28;20025;-82
2021/03/07 08:33:25;;;;;;;4.35;3.50;;;;;;;;;;5033543;28;20386;-80
2021/03/07 08:36:10;;;;;;;3.45;2.63;;;;;;;;;;5031976;28;20118;-80
2021/03/07 08:38:37;;;;;;;5.53;3.03;;;;;;;;;;5031380;28;20029;-81
2021/03/07 08:41:03;;;;;;;3.58;2.90;;;;;;;;;;5032022;28;20022;-80
2021/03/07 08:43:30;;;;;;;3.88;3.10;;;;;;;;;;5032223;28;20284;-81
2021/03/07 08:46:05;;;;;;;5.53;3.70;;;;;;;;;;5033446;28;20033;-79
2021/03/07 08:48:32;;;;;;;4.85;3.30;;;;;;;;;;5035369;28;20029;-82
2021/03/07 08:50:58;;;;;;;4.45;3.08;;;;;;;;;;5034334;28;20055;-80
2021/03/07 08:53:25;;;;;;;4.28;2.83;;;;;;;;;;5034837;28;20123;-77
2021/03/07 08:55:51;;;;;;;4.07;3.05;;;;;;;;;;5031335;28;20026;-80
2021/03/07 08:58:18;;;;;;;5.10;4.15;;;;;;;;;;5031744;28;20037;-80
2021/03/07 09:00:45;;;;;;;4.45;3.10;;;;;;;;;;5031628;28;20030;-80
2021/03/07 09:03:15;;;;;;;2.63;2.35;;;;;;;;;;5032252;28;20021;-80
2021/03/07 09:05:41;;;;;;;3.92;2.60;;;;;;;;;;5031895;28;20360;-81
2021/03/07 09:08:07;;;;;;;3.53;2.95;;;;;;;;;;5031940;28;20025;-80
2021/03/07 09:10:39;;;;;;;3.65;3.20;;;17.00;43.40;;;;;;5034033;28;20039;-80
2021/03/07 09:13:11;;;;;;;3.42;2.90;;;22.40;36.40;;;;;;5043487;28;20075;-78
2021/03/07 09:15:39;;;;;;;3.13;2.53;;;21.10;35.40;;;;;;5040273;28;20033;-78
2021/03/07 09:18:05;;;;;;;3.88;2.58;;;22.00;35.50;;;;;;5032667;28;20025;-82
2021/03/07 09:20:42;;;;;;;3.80;2.83;;;20.10;37.50;;;;;;5032193;28;20029;-80
2021/03/07 09:23:36;;;;;;;4.25;3.30;;;20.40;37.00;;;;;;5033137;28;20128;-80
2021/03/07 09:26:11;;;;;;;3.67;2.85;;;20.80;36.50;;;;;;5030757;28;20211;-80
2021/03/07 09:28:41;;;;;;;4.53;3.08;;;19.00;38.30;;;;;;5031149;28;20452;-80
2021/03/07 09:31:09;;;;;;;5.82;3.58;;;19.40;37.80;;;;;;5030001;28;20128;-80
2021/03/07 09:33:36;;;;;;;3.60;3.00;;;20.00;36.20;;;;;;5030238;28;20026;-82
2021/03/07 09:36:07;;;;;;;3.35;2.30;;;21.80;35.10;;;;;;5031004;28;20509;-79
2021/03/07 09:38:42;;;;;;;4.07;2.88;;;20.40;35.90;;;;;;5031331;28;20036;-79
2021/03/07 09:41:08;;;;;;;5.20;3.10;;;20.70;36.10;;;;;;5030399;28;20025;-79
2021/03/07 09:43:34;;;;;;;5.10;3.60;;;21.50;35.50;;;;;;5031062;28;20028;-81
2021/03/07 09:46:00;;;;;;;;;;;21.10;35.50;;;;;;5027686;28;20315;-80
2021/03/07 09:48:30;;;;;;;;;;;20.40;36.70;;;;;;5028795;28;20363;-79
2021/03/07 09:50:58;;;;;;;17.00;4.97;;;20.10;38.20;;;;;;5032373;28;19929;-80
2021/03/07 09:53:24;;;;;;;4.60;3.05;;;19.40;38.00;;;;;;5038981;28;20589;-80
2021/03/07 09:55:50;;;;;;;4.30;3.20;;;19.40;38.10;;;;;;5039059;28;20049;-79
2021/03/07 09:58:15;;;;;;;3.55;3.17;;;21.00;37.00;;;;;;5025696;28;20029;-80
2021/03/07 10:00:47;;;;;;;6.13;3.38;;;20.30;36.80;;;;;;5032760;28;20017;-82
2021/03/07 10:03:24;;;;;;;4.78;3.28;;;20.40;41.90;;;;;;5028387;28;20021;-80
2021/03/07 10:06:03;;;;;;;4.22;2.92;;;20.70;36.50;;;;;;5030349;28;20473;-80
2021/03/07 10:08:33;;;;;;;;;;;21.00;39.60;;;;;;5029422;28;20490;-80
2021/03/07 10:11:19;;;;;;;3.85;2.70;;;21.50;35.20;;;;;;5053770;28;20309;-80
2021/03/07 10:13:56;;;;;;;4.80;3.10;;;22.30;35.70;;;;;;5056748;28;20032;-80
2021/03/07 10:16:30;;;;;;;3.10;2.70;;;22.10;36.00;;;;;;5041748;28;20022;-80
2021/03/07 10:19:12;;;;;;;;;;;21.40;34.40;;;;;;5030331;28;20395;-80
2021/03/07 10:21:38;;;;;;;;;;;20.30;37.70;;;;;;5034952;28;20337;-80
2021/03/07 10:24:04;;;;;;;;;;;;;;;;;;5039837;28;19905;-82
2021/03/07 10:26:30;;;;;;;3.30;2.60;;;21.20;35.90;;;;;;5049931;28;19913;-81
2021/03/07 10:28:56;;;;;;;4.53;2.47;;;20.60;35.20;;;;;;5029839;28;20094;-81
2021/03/07 10:31:21;;;;;;;3.65;2.70;;;21.70;34.60;;;;;;5042873;28;20045;-80
2021/03/07 10:33:53;;;;;;;2.30;2.10;;;22.20;34.60;;;;;;5034451;28;20034;-80
2021/03/07 10:36:22;;;;;;;3.13;2.65;;;21.60;33.60;;;;;;5043301;28;20238;-80
2021/03/07 10:39:08;;;;;;;;;;;21.60;33.50;;;;;;5039933;28;20032;-81
2021/03/07 10:41:33;;;;;;;;;;;22.10;33.30;;;;;;5041482;28;19959;-80
2021/03/07 10:44:00;;;;;;;;;;;22.00;34.60;;;;;;5038515;28;19909;-81
2021/03/07 10:46:26;;;;;;;;;;;23.30;32.30;;;;;;5031750;28;19905;-80
2021/03/07 10:48:53;;;;;;;3.90;3.00;;;22.30;32.50;;;;;;5031699;28;19912;-80
2021/03/07 10:51:19;;;;;;;4.57;3.03;;;20.90;35.30;;;;;;5032166;28;20024;-82
2021/03/07 10:53:45;;;;;;;3.53;2.30;;;21.20;33.70;;;;;;5031173;28;20032;-80
2021/03/07 10:56:10;;;;;;;3.95;2.83;;;21.00;35.50;;;;;;5032049;28;20483;-80
2021/03/07 10:58:36;;;;;;;4.95;2.65;;;20.80;35.30;;;;;;5032128;28;20033;-80
2021/03/07 11:01:02;;;;;;;3.28;2.45;;;20.80;34.20;;;;;;5030599;28;20025;-80
2021/03/07 11:03:27;;;;;;;;;;;21.10;34.80;;;;;;5030799;28;20025;-80
2021/03/07 11:05:53;;;;;;;2.80;2.47;;;20.00;34.80;;;;;;5033059;28;20321;-81
2021/03/07 11:08:19;;;;;;;5.40;2.90;;;20.50;36.50;;;;;;5032799;28;20030;-80
2021/03/07 11:10:44;;;;;;;2.88;2.35;;;20.40;36.30;;;;;;5031946;28;20419;-80
2021/03/07 11:13:10;;;;;;;;;;;20.40;36.10;;;;;;5031563;28;20029;-80
2021/03/07 11:15:35;;;;;;;;;;;18.70;37.30;;;;;;5031454;28;19909;-79
2021/03/07 11:18:01;;;;;;;;;;;17.70;37.70;;;;;;5030892;28;19916;-80
2021/03/07 11:20:27;;;;;;;;;;;16.70;38.00;;;;;;5030483;28;20043;-80
2021/03/07 11:22:52;;;;;;;;;;;14.90;41.30;;;;;;5030377;28;19905;-79
2021/03/07 11:25:18;;;;;;;;;;;14.30;43.00;;;;;;5030603;28;19905;-80
2021/03/07 11:27:43;;;;;;;;;;;13.40;43.70;;;;;;5029918;28;19909;-80
2021/03/07 11:30:09;;;;;;;;;;;13.10;43.60;;;;;;5030352;28;19959;-79
2021/03/07 11:32:35;;;;;;;;;;;12.70;46.20;;;;;;5031908;28;19905;-80
2021/03/07 11:35:00;;;;;;;;;;;12.40;46.80;;;;;;5029740;28;19959;-79
2021/03/07 11:37:26;;;;;;;;;;;12.60;45.50;;;;;;5036094;28;19909;-79
2021/03/07 11:39:51;;;;;;;;;;;12.00;47.60;;;;;;5031104;28;19956;-79
2021/03/07 11:42:17;;;;;;;;;;;12.20;45.00;;;;;;5043507;28;20396;-78
2021/03/07 11:44:42;;;;;;;;;;;12.90;43.00;;;;;;5047799;28;19943;-78
2021/03/07 11:47:08;;;;;;;;;;;12.80;44.20;;;;;;5038683;28;19929;-79
2021/03/07 11:49:34;;;;;;;;;;;13.40;46.60;;;;;;5028952;28;19905;-78
2021/03/07 11:51:59;;;;;;;;;;;13.70;44.60;;;;;;5029444;28;20367;-78
2021/03/07 11:54:25;;;;;;;;;;;13.70;41.80;;;;;;5034218;28;19904;-78
2021/03/07 11:56:50;;;;;;;;;;;13.30;43.10;;;;;;5049181;28;19913;-78
2021/03/07 11:59:16;;;;;;;;;;;13.00;45.40;;;;;;5048845;28;20378;-79
2021/03/07 12:01:41;;;;;;;;;;;12.50;47.80;;;;;;5049468;28;19908;-77
2021/03/07 12:04:07;;;;;;;;;;;12.60;46.00;;;;;;5048944;28;19911;-78
2021/03/07 12:06:32;;;;;;;;;;;12.70;45.10;;;;;;5052368;28;19912;-78
2021/03/07 12:08:58;;;;;;;;;;;12.60;46.50;;;;;;5052254;28;19995;-79
2021/03/07 12:11:23;;;;;;;;;;;12.40;47.80;;;;;;5053227;28;20119;-79
2021/03/07 12:13:49;;;;;;;;;;;12.50;47.10;;;;;;5043323;28;19936;-78
2021/03/07 12:16:14;;;;;;;;;;;12.00;44.20;;;;;;5032476;28;19909;-79
2021/03/07 12:18:41;;;;;;;;;;;12.00;46.70;;;;;;5031203;28;19935;-79
2021/03/07 12:21:08;;;;;;;;;;;11.90;48.30;;;;;;5046974;28;20324;-78
2021/03/07 12:23:34;;;;;;;;;;;12.10;49.30;;;;;;5032112;28;19955;-78
2021/03/07 12:26:00;;;;;;;;;;;12.60;47.20;;;;;;5027545;28;19959;-78
2021/03/07 12:28:25;;;;;;;;;;;12.90;48.60;;;;;;5032194;28;19905;-78
2021/03/07 12:30:51;;;;;;;;;;;12.40;44.50;;;;;;5032079;28;20000;-78
2021/03/07 12:33:16;;;;;;;;;;;12.40;44.40;;;;;;5032302;28;20394;-78
2021/03/07 12:35:43;;;;;;;;;;;13.00;46.00;;;;;;5031296;28;20330;-78
2021/03/07 12:38:08;;;;;;;;;;;14.80;42.70;;;;;;5032596;28;19909;-79
2021/03/07 12:40:34;;;;;;;;;;;16.10;41.70;;;;;;5050070;28;19952;-79
2021/03/07 12:42:59;;;;;;;;;;;17.00;40.50;;;;;;5032258;28;19909;-78
2021/03/07 12:45:25;;;;;;;;;;;15.30;40.60;;;;;;5028578;28;20011;-78
2021/03/07 12:47:50;;;;;;;;;;;15.00;42.40;;;;;;5032788;28;19991;-78
2021/03/07 12:50:16;;;;;;;;;;;13.70;45.50;;;;;;5057602;28;19917;-78
2021/03/07 12:52:41;;;;;;;;;;;13.30;44.20;;;;;;5059082;28;19905;-78
2021/03/07 12:55:07;;;;;;;;;;;12.40;44.90;;;;;;5052280;28;19958;-77
2021/03/07 12:57:33;;;;;;;;;;;11.60;48.00;;;;;;5031957;28;20397;-78
2021/03/07 12:59:58;;;;;;;;;;;11.30;48.50;;;;;;5034060;28;19994;-78
2021/03/07 13:02:24;;;;;;;;;;;11.10;48.30;;;;;;5036991;28;19905;-78
2021/03/07 13:04:49;;;;;;;;;;;10.80;47.80;;;;;;5031317;28;20371;-77
2021/03/07 13:07:15;;;;;;;;;;;10.60;48.10;;;;;;5031854;28;19905;-78
2021/03/07 13:09:40;;;;;;;;;;;10.70;50.50;;;;;;5031538;28;19911;-78
2021/03/07 13:12:06;;;;;;;;;;;10.50;50.80;;;;;;5026001;28;19909;-78
2021/03/07 13:14:32;;;;;;;;;;;10.80;52.60;;;;;;5015338;28;19906;-78
2021/03/07 13:16:57;;;;;;;;;;;10.60;49.30;;;;;;5030827;28;19917;-79
2021/03/07 13:19:23;;;;;;;;;;;10.60;48.20;;;;;;5031526;28;19905;-78
2021/03/07 13:21:48;;;;;;;;;;;10.30;49.10;;;;;;5031745;28;19905;-78
2021/03/07 13:24:14;;;;;;;;;;;10.20;51.30;;;;;;5030653;28;20306;-77
2021/03/07 13:26:40;;;;;;;;;;;10.20;49.80;;;;;;5031427;28;20290;-78
2021/03/07 13:29:05;;;;;;;;;;;9.70;50.40;;;;;;5027877;28;19913;-78
2021/03/07 13:31:31;;;;;;;;;;;9.90;51.00;;;;;;5038243;28;19935;-78
2021/03/07 13:33:56;;;;;;;;;;;9.80;55.70;;;;;;5032271;28;19905;-78
2021/03/07 13:36:22;;;;;;;;;;;9.70;52.60;;;;;;5036110;28;20373;-78
2021/03/07 13:38:47;;;;;;;;;;;9.60;53.30;;;;;;5044610;28;20007;-79
2021/03/07 13:41:13;;;;;;;;;;;9.50;53.00;;;;;;5048988;28;19951;-79
2021/03/07 13:43:38;;;;;;;;;;;9.30;53.80;;;;;;5044528;28;19911;-79
2021/03/07 13:46:04;;;;;;;;;;;9.20;58.70;;;;;;5052985;28;19904;-79
2021/03/07 13:48:30;;;;;;;;;;;9.40;59.50;;;;;;5062435;28;20456;-79
2021/03/07 13:50:55;;;;;;;;;;;9.50;57.30;;;;;;5064671;28;19908;-79
2021/03/07 13:53:21;;;;;;;;;;;9.50;60.40;;;;;;5062166;28;19905;-79
2021/03/07 13:55:47;;;;;;;;;;;9.60;57.20;;;;;;5042563;28;19987;-79
2021/03/07 13:58:12;;;;;;;;;;;9.60;58.80;;;;;;5051224;28;19922;-79
2021/03/07 14:00:38;;;;;;;;;;;9.60;61.60;;;;;;5044223;28;19985;-78
2021/03/07 14:03:04;;;;;;;;;;;9.50;59.50;;;;;;5033001;28;19905;-78
2021/03/07 14:05:29;;;;;;;;;;;9.70;61.40;;;;;;5048016;28;19905;-78